sensor_id;sensor_type;location;lat;lon;timestamp;P1;durP1;ratioP1;P2;durP2;ratioP2
7747;SDS011;3918;42.564;23.164;2022-12-10T06:02:27;3.55;;;3.30;;
7747;SDS011;3918;42.564;23.164;2022-12-10T06:04:54;7.38;;;3.40;;
7747;SDS011;3918;42.564;23.164;2022-12-10T06:07:21;9.10;;;2.90;;
7747;SDS011;3918;42.564;23.164;2022-12-10T06:09:47;3.53;;;3.30;;
7747;SDS011;3918;42.564;23.164;2022-12-10T06:12:14;5.35;;;3.72;;
7747;SDS011;3918;42.564;23.164;2022-12-10T06:14:41;4.43;;;3.40;;
7747;SDS011;3918;42.564;23.164;2022-12-10T06:17:08;5.70;;;3.97;;
7747;SDS011;3918;42.564;23.164;2022-12-10T06:19:36;10.85;;;4.45;;
7747;SDS011;3918;42.564;23.164;2022-12-10T06:22:02;5.22;;;4.47;;
7747;SDS011;3918;42.564;23.164;2022-12-10T06:24:29;5.28;;;4.72;;
7747;SDS011;3918;42.564;23.164;2022-12-10T06:26:56;6.43;;;4.85;;
7747;SDS011;3918;42.564;23.164;2022-12-10T06:29:23;4.95;;;4.50;;
7747;SDS011;3918;42.564;23.164;2022-12-10T06:31:49;8.32;;;4.80;;
7747;SDS011;3918;42.564;23.164;2022-12-10T06:34:16;4.90;;;4.50;;
7747;SDS011;3918;42.564;23.164;2022-12-10T06:36:44;5.20;;;4.60;;
7747;SDS011;3918;42.564;23.164;2022-12-10T06:39:11;5.95;;;4.95;;
7747;SDS011;3918;42.564;23.164;2022-12-10T06:41:38;12.63;;;5.00;;
7747;SDS011;3918;42.564;23.164;2022-12-10T06:44:08;7.25;;;4.70;;
7747;SDS011;3918;42.564;23.164;2022-12-10T06:46:35;7.20;;;5.85;;
7747;SDS011;3918;42.564;23.164;2022-12-10T06:49:02;5.90;;;4.72;;
7747;SDS011;3918;42.564;23.164;2022-12-10T06:51:30;12.40;;;5.65;;
7747;SDS011;3918;42.564;23.164;2022-12-10T06:53:59;4.72;;;4.40;;
7747;SDS011;3918;42.564;23.164;2022-12-10T06:56:25;4.85;;;3.88;;
7747;SDS011;3918;42.564;23.164;2022-12-10T06:58:52;7.47;;;4.63;;
7747;SDS011;3918;42.564;23.164;2022-12-10T07:01:20;7.45;;;5.15;;
7747;SDS011;3918;42.564;23.164;2022-12-10T07:03:48;6.07;;;4.90;;
7747;SDS011;3918;42.564;23.164;2022-12-10T07:06:15;7.45;;;4.70;;
7747;SDS011;3918;42.564;23.164;2022-12-10T07:08:42;5.45;;;4.00;;
7747;SDS011;3918;42.564;23.164;2022-12-10T07:11:11;5.55;;;4.07;;
7747;SDS011;3918;42.564;23.164;2022-12-10T07:13:40;5.00;;;4.32;;
7747;SDS011;3918;42.564;23.164;2022-12-10T07:16:11;4.18;;;3.88;;
7747;SDS011;3918;42.564;23.164;2022-12-10T07:18:39;6.32;;;3.53;;
7747;SDS011;3918;42.564;23.164;2022-12-10T07:21:12;8.63;;;3.85;;
7747;SDS011;3918;42.564;23.164;2022-12-10T07:23:39;6.10;;;3.60;;
7747;SDS011;3918;42.564;23.164;2022-12-10T07:26:06;4.43;;;4.00;;
7747;SDS011;3918;42.564;23.164;2022-12-10T07:28:34;4.30;;;3.60;;
7747;SDS011;3918;42.564;23.164;2022-12-10T07:31:01;5.47;;;4.32;;
7747;SDS011;3918;42.564;23.164;2022-12-10T07:33:28;4.03;;;3.22;;
7747;SDS011;3918;42.564;23.164;2022-12-10T07:35:54;7.03;;;3.15;;
7747;SDS011;3918;42.564;23.164;2022-12-10T07:38:21;6.28;;;3.03;;
7747;SDS011;3918;42.564;23.164;2022-12-10T07:40:48;8.75;;;3.20;;
7747;SDS011;3918;42.564;23.164;2022-12-10T07:43:15;4.90;;;3.92;;
7747;SDS011;3918;42.564;23.164;2022-12-10T07:45:43;5.80;;;3.95;;
7747;SDS011;3918;42.564;23.164;2022-12-10T07:48:10;6.70;;;3.83;;
7747;SDS011;3918;42.564;23.164;2022-12-10T07:50:38;7.97;;;4.28;;
7747;SDS011;3918;42.564;23.164;2022-12-10T07:53:05;6.93;;;4.38;;
7747;SDS011;3918;42.564;23.164;2022-12-10T07:55:32;6.97;;;3.70;;
7747;SDS011;3918;42.564;23.164;2022-12-10T07:57:58;10.10;;;4.28;;
7747;SDS011;3918;42.564;23.164;2022-12-10T08:00:25;11.70;;;3.72;;
7747;SDS011;3918;42.564;23.164;2022-12-10T08:02:53;7.60;;;3.80;;
7747;SDS011;3918;42.564;23.164;2022-12-10T08:05:20;11.88;;;4.95;;
7747;SDS011;3918;42.564;23.164;2022-12-10T08:07:46;6.35;;;3.42;;
7747;SDS011;3918;42.564;23.164;2022-12-10T08:10:13;4.28;;;3.15;;
7747;SDS011;3918;42.564;23.164;2022-12-10T08:12:40;4.22;;;3.50;;
7747;SDS011;3918;42.564;23.164;2022-12-10T08:15:07;6.43;;;3.50;;
7747;SDS011;3918;42.564;23.164;2022-12-10T08:17:34;7.32;;;3.45;;
7747;SDS011;3918;42.564;23.164;2022-12-10T08:20:03;3.53;;;2.97;;
7747;SDS011;3918;42.564;23.164;2022-12-10T08:22:30;7.38;;;3.33;;
7747;SDS011;3918;42.564;23.164;2022-12-10T08:24:59;5.35;;;3.80;;
7747;SDS011;3918;42.564;23.164;2022-12-10T08:27:25;6.35;;;4.47;;
7747;SDS011;3918;42.564;23.164;2022-12-10T08:29:52;9.68;;;6.13;;
7747;SDS011;3918;42.564;23.164;2022-12-10T08:32:19;7.80;;;2.95;;
7747;SDS011;3918;42.564;23.164;2022-12-10T08:34:46;4.85;;;3.00;;
7747;SDS011;3918;42.564;23.164;2022-12-10T08:37:15;5.68;;;3.38;;
7747;SDS011;3918;42.564;23.164;2022-12-10T08:39:42;4.50;;;3.95;;
7747;SDS011;3918;42.564;23.164;2022-12-10T08:42:08;7.00;;;2.83;;
7747;SDS011;3918;42.564;23.164;2022-12-10T08:44:35;9.50;;;3.45;;
7747;SDS011;3918;42.564;23.164;2022-12-10T08:47:02;2.67;;;2.45;;
7747;SDS011;3918;42.564;23.164;2022-12-10T08:49:29;6.40;;;2.80;;
7747;SDS011;3918;42.564;23.164;2022-12-10T08:51:56;5.50;;;2.60;;
7747;SDS011;3918;42.564;23.164;2022-12-10T08:54:24;3.92;;;3.58;;
7747;SDS011;3918;42.564;23.164;2022-12-10T08:56:51;4.10;;;2.78;;
7747;SDS011;3918;42.564;23.164;2022-12-10T08:59:18;3.55;;;2.40;;
7747;SDS011;3918;42.564;23.164;2022-12-10T09:01:45;5.35;;;4.85;;
7747;SDS011;3918;42.564;23.164;2022-12-10T09:04:11;5.00;;;2.45;;
7747;SDS011;3918;42.564;23.164;2022-12-10T09:06:40;4.65;;;2.63;;
7747;SDS011;3918;42.564;23.164;2022-12-10T09:09:07;3.53;;;3.22;;
7747;SDS011;3918;42.564;23.164;2022-12-10T09:11:35;4.35;;;2.88;;
7747;SDS011;3918;42.564;23.164;2022-12-10T09:14:02;4.78;;;3.17;;
7747;SDS011;3918;42.564;23.164;2022-12-10T09:16:30;3.72;;;2.92;;
7747;SDS011;3918;42.564;23.164;2022-12-10T09:18:58;4.32;;;3.15;;
7747;SDS011;3918;42.564;23.164;2022-12-10T09:21:25;3.95;;;3.65;;
7747;SDS011;3918;42.564;23.164;2022-12-10T09:23:53;3.35;;;3.10;;
7747;SDS011;3918;42.564;23.164;2022-12-10T09:26:20;3.88;;;2.78;;
7747;SDS011;3918;42.564;23.164;2022-12-10T09:28:48;3.40;;;3.17;;
7747;SDS011;3918;42.564;23.164;2022-12-10T09:31:16;2.95;;;2.75;;
7747;SDS011;3918;42.564;23.164;2022-12-10T09:33:46;3.60;;;3.38;;
7747;SDS011;3918;42.564;23.164;2022-12-10T09:36:13;5.25;;;4.30;;
7747;SDS011;3918;42.564;23.164;2022-12-10T09:38:41;4.80;;;2.40;;
7747;SDS011;3918;42.564;23.164;2022-12-10T09:41:15;4.43;;;2.72;;
7747;SDS011;3918;42.564;23.164;2022-12-10T09:43:57;3.92;;;2.72;;
7747;SDS011;3918;42.564;23.164;2022-12-10T09:46:31;2.65;;;2.47;;
7747;SDS011;3918;42.564;23.164;2022-12-10T09:49:08;6.60;;;2.90;;
7747;SDS011;3918;42.564;23.164;2022-12-10T09:51:44;5.07;;;2.38;;
7747;SDS011;3918;42.564;23.164;2022-12-10T09:54:15;7.18;;;4.07;;
7747;SDS011;3918;42.564;23.164;2022-12-10T09:56:45;6.90;;;2.30;;
7747;SDS011;3918;42.564;23.164;2022-12-10T09:59:17;5.13;;;2.55;;
7747;SDS011;3918;42.564;23.164;2022-12-10T10:01:47;3.50;;;3.00;;
7747;SDS011;3918;42.564;23.164;2022-12-10T10:04:22;4.20;;;3.47;;
7747;SDS011;3918;42.564;23.164;2022-12-10T10:06:49;6.57;;;3.53;;
7747;SDS011;3918;42.564;23.164;2022-12-10T10:09:16;5.43;;;2.90;;
7747;SDS011;3918;42.564;23.164;2022-12-10T10:11:45;4.05;;;3.72;;
7747;SDS011;3918;42.564;23.164;2022-12-10T10:14:13;3.80;;;3.50;;
7747;SDS011;3918;42.564;23.164;2022-12-10T10:16:47;6.25;;;3.90;;
7747;SDS011;3918;42.564;23.164;2022-12-10T10:19:19;4.30;;;3.55;;
7747;SDS011;3918;42.564;23.164;2022-12-10T10:21:51;4.80;;;2.55;;
7747;SDS011;3918;42.564;23.164;2022-12-10T10:24:19;2.92;;;2.60;;
7747;SDS011;3918;42.564;23.164;2022-12-10T10:26:48;4.78;;;2.70;;
7747;SDS011;3918;42.564;23.164;2022-12-10T10:29:19;4.90;;;2.60;;
7747;SDS011;3918;42.564;23.164;2022-12-10T10:32:09;5.63;;;2.60;;
7747;SDS011;3918;42.564;23.164;2022-12-10T10:34:38;4.10;;;2.95;;
7747;SDS011;3918;42.564;23.164;2022-12-10T10:37:05;5.38;;;3.05;;
7747;SDS011;3918;42.564;23.164;2022-12-10T10:39:33;3.67;;;3.22;;
7747;SDS011;3918;42.564;23.164;2022-12-10T10:42:00;4.40;;;2.42;;
7747;SDS011;3918;42.564;23.164;2022-12-10T10:44:37;4.93;;;2.20;;
7747;SDS011;3918;42.564;23.164;2022-12-10T10:47:23;3.70;;;2.00;;
7747;SDS011;3918;42.564;23.164;2022-12-10T10:49:51;2.53;;;1.98;;
7747;SDS011;3918;42.564;23.164;2022-12-10T10:52:19;3.72;;;2.33;;
7747;SDS011;3918;42.564;23.164;2022-12-10T10:54:46;5.85;;;2.30;;
7747;SDS011;3918;42.564;23.164;2022-12-10T10:57:21;2.45;;;1.90;;
7747;SDS011;3918;42.564;23.164;2022-12-10T10:59:52;3.83;;;1.77;;
7747;SDS011;3918;42.564;23.164;2022-12-10T11:02:23;7.80;;;2.63;;
7747;SDS011;3918;42.564;23.164;2022-12-10T11:04:55;5.90;;;2.22;;
7747;SDS011;3918;42.564;23.164;2022-12-10T11:07:26;3.88;;;2.22;;
7747;SDS011;3918;42.564;23.164;2022-12-10T11:10:00;11.35;;;2.78;;
7747;SDS011;3918;42.564;23.164;2022-12-10T11:12:33;4.30;;;2.47;;
7747;SDS011;3918;42.564;23.164;2022-12-10T11:15:06;5.15;;;2.33;;
7747;SDS011;3918;42.564;23.164;2022-12-10T11:17:57;3.50;;;2.00;;
7747;SDS011;3918;42.564;23.164;2022-12-10T11:20:25;9.98;;;2.90;;
7747;SDS011;3918;42.564;23.164;2022-12-10T11:22:53;3.20;;;2.95;;
7747;SDS011;3918;42.564;23.164;2022-12-10T11:25:24;6.35;;;2.90;;
7747;SDS011;3918;42.564;23.164;2022-12-10T11:28:04;7.60;;;4.45;;
7747;SDS011;3918;42.564;23.164;2022-12-10T11:30:44;11.80;;;3.15;;
7747;SDS011;3918;42.564;23.164;2022-12-10T11:33:20;5.95;;;2.42;;
7747;SDS011;3918;42.564;23.164;2022-12-10T11:36:00;8.05;;;3.05;;
7747;SDS011;3918;42.564;23.164;2022-12-10T11:38:38;6.55;;;3.17;;
7747;SDS011;3918;42.564;23.164;2022-12-10T11:41:15;6.72;;;2.67;;
7747;SDS011;3918;42.564;23.164;2022-12-10T11:43:54;7.22;;;2.72;;
7747;SDS011;3918;42.564;23.164;2022-12-10T11:46:55;6.70;;;2.97;;
7747;SDS011;3918;42.564;23.164;2022-12-10T11:49:35;4.13;;;2.95;;
7747;SDS011;3918;42.564;23.164;2022-12-10T11:52:09;4.75;;;2.63;;
7747;SDS011;3918;42.564;23.164;2022-12-10T11:54:53;3.75;;;2.67;;
7747;SDS011;3918;42.564;23.164;2022-12-10T11:57:30;7.47;;;2.97;;
7747;SDS011;3918;42.564;23.164;2022-12-10T12:00:18;4.88;;;2.63;;
7747;SDS011;3918;42.564;23.164;2022-12-10T12:02:55;5.97;;;2.53;;
7747;SDS011;3918;42.564;23.164;2022-12-10T12:05:41;5.97;;;2.45;;
7747;SDS011;3918;42.564;23.164;2022-12-10T12:08:20;6.10;;;2.53;;
7747;SDS011;3918;42.564;23.164;2022-12-10T12:10:58;10.10;;;2.55;;
7747;SDS011;3918;42.564;23.164;2022-12-10T12:13:47;8.98;;;2.67;;
7747;SDS011;3918;42.564;23.164;2022-12-10T12:16:23;11.63;;;2.80;;
7747;SDS011;3918;42.564;23.164;2022-12-10T12:18:56;11.50;;;2.88;;
7747;SDS011;3918;42.564;23.164;2022-12-10T12:21:26;6.18;;;2.13;;
7747;SDS011;3918;42.564;23.164;2022-12-10T12:23:54;4.78;;;2.50;;
7747;SDS011;3918;42.564;23.164;2022-12-10T12:26:23;5.10;;;2.70;;
7747;SDS011;3918;42.564;23.164;2022-12-10T12:28:55;5.22;;;3.53;;
7747;SDS011;3918;42.564;23.164;2022-12-10T12:31:29;10.57;;;3.03;;
7747;SDS011;3918;42.564;23.164;2022-12-10T12:34:02;7.28;;;2.67;;
7747;SDS011;3918;42.564;23.164;2022-12-10T12:36:37;7.47;;;2.60;;
7747;SDS011;3918;42.564;23.164;2022-12-10T12:39:06;2.40;;;2.20;;
7747;SDS011;3918;42.564;23.164;2022-12-10T12:41:44;6.50;;;2.67;;
7747;SDS011;3918;42.564;23.164;2022-12-10T12:44:21;5.40;;;2.53;;
7747;SDS011;3918;42.564;23.164;2022-12-10T12:46:55;6.47;;;2.67;;
7747;SDS011;3918;42.564;23.164;2022-12-10T12:49:26;4.75;;;2.80;;
7747;SDS011;3918;42.564;23.164;2022-12-10T12:51:57;5.22;;;3.05;;
7747;SDS011;3918;42.564;23.164;2022-12-10T12:54:28;4.13;;;2.42;;
7747;SDS011;3918;42.564;23.164;2022-12-10T12:56:58;8.23;;;3.10;;
7747;SDS011;3918;42.564;23.164;2022-12-10T12:59:35;7.88;;;4.97;;
7747;SDS011;3918;42.564;23.164;2022-12-10T13:02:17;6.57;;;3.05;;
7747;SDS011;3918;42.564;23.164;2022-12-10T13:04:51;10.77;;;2.53;;
7747;SDS011;3918;42.564;23.164;2022-12-10T13:07:34;8.32;;;3.00;;
7747;SDS011;3918;42.564;23.164;2022-12-10T13:12:51;5.88;;;2.70;;
7747;SDS011;3918;42.564;23.164;2022-12-10T13:15:33;10.45;;;3.05;;
7747;SDS011;3918;42.564;23.164;2022-12-10T13:24:09;9.95;;;2.85;;
7747;SDS011;3918;42.564;23.164;2022-12-10T13:29:42;9.65;;;2.92;;
7747;SDS011;3918;42.564;23.164;2022-12-10T13:32:15;16.98;;;8.98;;
7747;SDS011;3918;42.564;23.164;2022-12-10T13:34:43;3.65;;;2.35;;
7747;SDS011;3918;42.564;23.164;2022-12-10T13:37:26;8.38;;;2.97;;
7747;SDS011;3918;42.564;23.164;2022-12-10T13:42:54;5.97;;;3.20;;
7747;SDS011;3918;42.564;23.164;2022-12-10T13:45:40;6.18;;;2.80;;
7747;SDS011;3918;42.564;23.164;2022-12-10T13:48:18;4.90;;;2.72;;
7747;SDS011;3918;42.564;23.164;2022-12-10T13:50:55;6.55;;;2.72;;
7747;SDS011;3918;42.564;23.164;2022-12-10T13:53:33;5.70;;;2.95;;
7747;SDS011;3918;42.564;23.164;2022-12-10T13:56:11;7.68;;;2.85;;
7747;SDS011;3918;42.564;23.164;2022-12-10T13:58:47;5.28;;;2.67;;
7747;SDS011;3918;42.564;23.164;2022-12-10T14:01:29;8.88;;;3.97;;
7747;SDS011;3918;42.564;23.164;2022-12-10T14:07:14;6.07;;;4.35;;
7747;SDS011;3918;42.564;23.164;2022-12-10T14:09:46;5.32;;;3.97;;
7747;SDS011;3918;42.564;23.164;2022-12-10T14:12:16;3.45;;;2.92;;
7747;SDS011;3918;42.564;23.164;2022-12-10T14:14:49;6.53;;;2.83;;
7747;SDS011;3918;42.564;23.164;2022-12-10T14:17:22;4.68;;;3.17;;
7747;SDS011;3918;42.564;23.164;2022-12-10T14:19:56;5.30;;;2.75;;
7747;SDS011;3918;42.564;23.164;2022-12-10T14:22:24;3.70;;;3.38;;
7747;SDS011;3918;42.564;23.164;2022-12-10T14:25:00;4.10;;;3.35;;
7747;SDS011;3918;42.564;23.164;2022-12-10T14:27:31;9.40;;;5.82;;
7747;SDS011;3918;42.564;23.164;2022-12-10T14:29:59;6.45;;;3.72;;
7747;SDS011;3918;42.564;23.164;2022-12-10T14:32:29;6.20;;;3.97;;
7747;SDS011;3918;42.564;23.164;2022-12-10T14:34:58;4.35;;;3.75;;
7747;SDS011;3918;42.564;23.164;2022-12-10T14:37:27;5.50;;;4.97;;
7747;SDS011;3918;42.564;23.164;2022-12-10T14:39:57;5.03;;;4.75;;
7747;SDS011;3918;42.564;23.164;2022-12-10T14:42:25;7.50;;;5.43;;
7747;SDS011;3918;42.564;23.164;2022-12-10T14:44:54;6.30;;;5.10;;
7747;SDS011;3918;42.564;23.164;2022-12-10T14:47:24;6.57;;;6.00;;
7747;SDS011;3918;42.564;23.164;2022-12-10T14:49:53;5.80;;;4.97;;
7747;SDS011;3918;42.564;23.164;2022-12-10T14:52:22;6.00;;;5.40;;
7747;SDS011;3918;42.564;23.164;2022-12-10T14:54:50;7.13;;;5.80;;
7747;SDS011;3918;42.564;23.164;2022-12-10T14:57:18;7.07;;;5.32;;
7747;SDS011;3918;42.564;23.164;2022-12-10T14:59:54;6.38;;;5.88;;
7747;SDS011;3918;42.564;23.164;2022-12-10T15:02:26;7.55;;;5.88;;
7747;SDS011;3918;42.564;23.164;2022-12-10T15:04:55;7.65;;;6.75;;
7747;SDS011;3918;42.564;23.164;2022-12-10T15:07:24;11.48;;;6.45;;
7747;SDS011;3918;42.564;23.164;2022-12-10T15:09:53;6.00;;;5.47;;
7747;SDS011;3918;42.564;23.164;2022-12-10T15:12:27;6.32;;;5.72;;
7747;SDS011;3918;42.564;23.164;2022-12-10T15:15:01;9.10;;;6.20;;
7747;SDS011;3918;42.564;23.164;2022-12-10T15:17:35;7.00;;;6.43;;
7747;SDS011;3918;42.564;23.164;2022-12-10T15:20:09;8.80;;;6.28;;
7747;SDS011;3918;42.564;23.164;2022-12-10T15:22:37;7.88;;;6.53;;
7747;SDS011;3918;42.564;23.164;2022-12-10T15:25:12;10.95;;;7.05;;
7747;SDS011;3918;42.564;23.164;2022-12-10T15:27:51;7.53;;;6.78;;
7747;SDS011;3918;42.564;23.164;2022-12-10T15:30:34;7.20;;;6.65;;
7747;SDS011;3918;42.564;23.164;2022-12-10T15:33:03;7.43;;;6.25;;
7747;SDS011;3918;42.564;23.164;2022-12-10T15:35:53;16.67;;;7.18;;
7747;SDS011;3918;42.564;23.164;2022-12-10T15:38:20;8.50;;;7.32;;
7747;SDS011;3918;42.564;23.164;2022-12-10T15:40:48;7.32;;;6.72;;
7747;SDS011;3918;42.564;23.164;2022-12-10T15:43:19;14.52;;;7.68;;
7747;SDS011;3918;42.564;23.164;2022-12-10T15:45:53;15.50;;;7.38;;
7747;SDS011;3918;42.564;23.164;2022-12-10T15:48:20;11.45;;;7.43;;
7747;SDS011;3918;42.564;23.164;2022-12-10T15:50:46;8.75;;;7.85;;
7747;SDS011;3918;42.564;23.164;2022-12-10T15:53:16;10.45;;;6.75;;
7747;SDS011;3918;42.564;23.164;2022-12-10T15:55:50;10.05;;;6.88;;
7747;SDS011;3918;42.564;23.164;2022-12-10T15:58:17;8.82;;;6.25;;
7747;SDS011;3918;42.564;23.164;2022-12-10T16:00:44;9.07;;;6.97;;
7747;SDS011;3918;42.564;23.164;2022-12-10T16:03:13;7.07;;;6.47;;
7747;SDS011;3918;42.564;23.164;2022-12-10T16:05:42;7.50;;;6.72;;
7747;SDS011;3918;42.564;23.164;2022-12-10T16:08:12;8.13;;;6.60;;
7747;SDS011;3918;42.564;23.164;2022-12-10T16:10:43;6.10;;;5.50;;
7747;SDS011;3918;42.564;23.164;2022-12-10T16:13:11;10.65;;;6.68;;
7747;SDS011;3918;42.564;23.164;2022-12-10T16:15:42;13.38;;;7.45;;
7747;SDS011;3918;42.564;23.164;2022-12-10T16:18:13;7.13;;;6.13;;
7747;SDS011;3918;42.564;23.164;2022-12-10T16:20:40;7.07;;;6.38;;
7747;SDS011;3918;42.564;23.164;2022-12-10T16:23:06;7.13;;;6.00;;
7747;SDS011;3918;42.564;23.164;2022-12-10T16:25:35;7.82;;;5.82;;
7747;SDS011;3918;42.564;23.164;2022-12-10T16:28:09;8.18;;;5.70;;
7747;SDS011;3918;42.564;23.164;2022-12-10T16:30:37;12.75;;;6.15;;
7747;SDS011;3918;42.564;23.164;2022-12-10T16:33:07;13.07;;;6.72;;
7747;SDS011;3918;42.564;23.164;2022-12-10T16:35:35;52.00;;;8.45;;
7747;SDS011;3918;42.564;23.164;2022-12-10T16:38:02;12.73;;;6.13;;
7747;SDS011;3918;42.564;23.164;2022-12-10T16:40:29;25.30;;;7.07;;
7747;SDS011;3918;42.564;23.164;2022-12-10T16:42:56;37.30;;;6.32;;
7747;SDS011;3918;42.564;23.164;2022-12-10T16:45:24;62.35;;;8.48;;
7747;SDS011;3918;42.564;23.164;2022-12-10T16:47:53;111.03;;;10.25;;
7747;SDS011;3918;42.564;23.164;2022-12-10T16:50:20;122.47;;;10.45;;
7747;SDS011;3918;42.564;23.164;2022-12-10T16:52:48;128.98;;;10.00;;
7747;SDS011;3918;42.564;23.164;2022-12-10T16:55:17;64.35;;;6.90;;
7747;SDS011;3918;42.564;23.164;2022-12-10T16:57:45;5.47;;;5.07;;
7747;SDS011;3918;42.564;23.164;2022-12-10T17:00:13;6.93;;;5.43;;
7747;SDS011;3918;42.564;23.164;2022-12-10T17:02:42;6.70;;;6.03;;
7747;SDS011;3918;42.564;23.164;2022-12-10T17:05:12;9.50;;;6.63;;
7747;SDS011;3918;42.564;23.164;2022-12-10T17:07:41;6.35;;;5.85;;
7747;SDS011;3918;42.564;23.164;2022-12-10T17:10:09;8.95;;;6.43;;
7747;SDS011;3918;42.564;23.164;2022-12-10T17:12:37;9.05;;;5.68;;
7747;SDS011;3918;42.564;23.164;2022-12-10T17:15:08;10.13;;;6.13;;
7747;SDS011;3918;42.564;23.164;2022-12-10T17:17:37;8.80;;;6.10;;
7747;SDS011;3918;42.564;23.164;2022-12-10T17:20:06;35.13;;;7.85;;
7747;SDS011;3918;42.564;23.164;2022-12-10T17:22:41;30.25;;;7.03;;
7747;SDS011;3918;42.564;23.164;2022-12-10T17:25:10;211.15;;;14.32;;
7747;SDS011;3918;42.564;23.164;2022-12-10T17:27:36;187.75;;;12.57;;
7747;SDS011;3918;42.564;23.164;2022-12-10T17:30:04;638.08;;;32.72;;
7747;SDS011;3918;42.564;23.164;2022-12-10T17:32:32;577.80;;;32.60;;
7747;SDS011;3918;42.564;23.164;2022-12-10T17:34:58;596.83;;;34.08;;
7747;SDS011;3918;42.564;23.164;2022-12-10T17:37:25;582.47;;;29.83;;
7747;SDS011;3918;42.564;23.164;2022-12-10T17:39:56;832.75;;;42.60;;
7747;SDS011;3918;42.564;23.164;2022-12-10T17:42:25;792.75;;;42.38;;
7747;SDS011;3918;42.564;23.164;2022-12-10T17:44:51;985.05;;;52.35;;
7747;SDS011;3918;42.564;23.164;2022-12-10T17:47:19;825.53;;;44.90;;
7747;SDS011;3918;42.564;23.164;2022-12-10T17:49:48;646.22;;;38.00;;
7747;SDS011;3918;42.564;23.164;2022-12-10T17:52:15;673.42;;;34.00;;
7747;SDS011;3918;42.564;23.164;2022-12-10T17:54:42;769.20;;;44.03;;
7747;SDS011;3918;42.564;23.164;2022-12-10T17:57:09;662.70;;;33.80;;
7747;SDS011;3918;42.564;23.164;2022-12-10T17:59:41;668.75;;;34.25;;
7747;SDS011;3918;42.564;23.164;2022-12-10T18:02:08;849.22;;;45.33;;
7747;SDS011;3918;42.564;23.164;2022-12-10T18:04:36;983.83;;;52.25;;
7747;SDS011;3918;42.564;23.164;2022-12-10T18:07:12;1250.15;;;65.70;;
7747;SDS011;3918;42.564;23.164;2022-12-10T18:09:39;972.95;;;51.90;;
7747;SDS011;3918;42.564;23.164;2022-12-10T18:12:07;922.38;;;47.60;;
7747;SDS011;3918;42.564;23.164;2022-12-10T18:14:35;1036.63;;;54.58;;
7747;SDS011;3918;42.564;23.164;2022-12-10T18:17:03;1028.40;;;51.08;;
7747;SDS011;3918;42.564;23.164;2022-12-10T18:19:35;724.17;;;36.30;;
7747;SDS011;3918;42.564;23.164;2022-12-10T18:22:02;618.75;;;39.28;;
7747;SDS011;3918;42.564;23.164;2022-12-10T18:24:29;519.83;;;27.35;;
7747;SDS011;3918;42.564;23.164;2022-12-10T18:26:56;746.85;;;40.45;;
7747;SDS011;3918;42.564;23.164;2022-12-10T18:29:23;871.97;;;45.50;;
7747;SDS011;3918;42.564;23.164;2022-12-10T18:31:50;810.65;;;43.22;;
7747;SDS011;3918;42.564;23.164;2022-12-10T18:34:18;635.53;;;32.55;;
7747;SDS011;3918;42.564;23.164;2022-12-10T18:36:46;591.42;;;30.92;;
7747;SDS011;3918;42.564;23.164;2022-12-10T18:39:14;903.07;;;49.83;;
7747;SDS011;3918;42.564;23.164;2022-12-10T18:41:44;759.83;;;38.38;;
7747;SDS011;3918;42.564;23.164;2022-12-10T18:44:11;679.75;;;32.22;;
7747;SDS011;3918;42.564;23.164;2022-12-10T18:46:41;724.00;;;31.58;;
7747;SDS011;3918;42.564;23.164;2022-12-10T18:49:09;513.38;;;23.75;;
7747;SDS011;3918;42.564;23.164;2022-12-10T18:51:38;364.58;;;17.98;;
7747;SDS011;3918;42.564;23.164;2022-12-10T18:54:05;497.15;;;24.42;;
7747;SDS011;3918;42.564;23.164;2022-12-10T18:56:33;528.30;;;25.45;;
7747;SDS011;3918;42.564;23.164;2022-12-10T18:59:00;659.05;;;32.10;;
7747;SDS011;3918;42.564;23.164;2022-12-10T19:01:28;553.50;;;29.92;;
7747;SDS011;3918;42.564;23.164;2022-12-10T19:03:56;770.97;;;39.70;;
7747;SDS011;3918;42.564;23.164;2022-12-10T19:06:24;591.38;;;29.50;;
7747;SDS011;3918;42.564;23.164;2022-12-10T19:08:54;544.30;;;24.27;;
7747;SDS011;3918;42.564;23.164;2022-12-10T19:11:22;399.40;;;17.65;;
7747;SDS011;3918;42.564;23.164;2022-12-10T19:13:49;645.78;;;31.35;;
7747;SDS011;3918;42.564;23.164;2022-12-10T19:16:17;624.45;;;30.35;;
7747;SDS011;3918;42.564;23.164;2022-12-10T19:18:45;536.00;;;26.52;;
7747;SDS011;3918;42.564;23.164;2022-12-10T19:21:12;723.58;;;33.17;;
7747;SDS011;3918;42.564;23.164;2022-12-10T19:23:39;538.83;;;27.95;;
7747;SDS011;3918;42.564;23.164;2022-12-10T19:26:11;549.40;;;25.38;;
7747;SDS011;3918;42.564;23.164;2022-12-10T19:28:49;571.33;;;26.40;;
7747;SDS011;3918;42.564;23.164;2022-12-10T19:31:16;564.47;;;33.03;;
7747;SDS011;3918;42.564;23.164;2022-12-10T19:33:43;468.45;;;20.10;;
7747;SDS011;3918;42.564;23.164;2022-12-10T19:36:10;369.50;;;19.38;;
7747;SDS011;3918;42.564;23.164;2022-12-10T19:38:43;142.38;;;10.05;;
7747;SDS011;3918;42.564;23.164;2022-12-10T19:41:10;188.98;;;11.05;;
7747;SDS011;3918;42.564;23.164;2022-12-10T19:43:38;7.88;;;4.43;;
7747;SDS011;3918;42.564;23.164;2022-12-10T19:46:09;12.00;;;5.20;;
7747;SDS011;3918;42.564;23.164;2022-12-10T19:48:38;5.90;;;5.10;;
7747;SDS011;3918;42.564;23.164;2022-12-10T19:51:05;8.35;;;5.35;;
7747;SDS011;3918;42.564;23.164;2022-12-10T19:53:32;6.18;;;5.28;;
7747;SDS011;3918;42.564;23.164;2022-12-10T19:56:00;19.63;;;6.20;;
7747;SDS011;3918;42.564;23.164;2022-12-10T19:58:28;13.73;;;6.28;;
7747;SDS011;3918;42.564;23.164;2022-12-10T20:00:55;11.52;;;5.50;;
